createdAt,value
2019-03-29T00:00:47.873Z,1001.23
2019-03-29T00:01:47.858Z,1001.30
2019-03-29T00:02:47.856Z,1001.22
2019-03-29T00:03:47.915Z,1001.22
2019-03-29T00:04:47.834Z,1001.16
2019-03-29T00:05:47.824Z,1001.15
2019-03-29T00:06:47.801Z,1001.20
2019-03-29T00:07:47.790Z,1001.18
2019-03-29T00:08:47.878Z,1001.17
2019-03-29T00:09:47.821Z,1001.13
2019-03-29T00:10:47.764Z,1001.10
2019-03-29T00:11:47.748Z,1001.12
2019-03-29T00:12:47.768Z,1001.04
2019-03-29T00:13:47.737Z,1001.09
2019-03-29T00:14:58.559Z,1001.10
2019-03-29T00:15:47.711Z,1001.05
2019-03-29T00:16:47.702Z,1001.03
2019-03-29T00:17:47.692Z,1001.05
2019-03-29T00:18:47.679Z,1001.07
2019-03-29T00:19:47.671Z,1001.05
2019-03-29T00:20:47.673Z,1001.12
2019-03-29T00:21:47.644Z,1001.09
2019-03-29T00:22:47.636Z,1001.06
2019-03-29T00:23:49.016Z,1001.11
2019-03-29T00:24:47.616Z,1001.08
2019-03-29T00:25:47.607Z,1001.14
2019-03-29T00:26:47.603Z,1001.13
2019-03-29T00:27:47.582Z,1001.14
2019-03-29T00:28:47.573Z,1001.10
2019-03-29T00:29:47.563Z,1001.06
2019-03-29T00:30:48.002Z,1001.02
2019-03-29T00:31:47.583Z,1000.98
2019-03-29T00:32:47.542Z,1000.95
2019-03-29T00:33:47.517Z,1000.97
2019-03-29T00:34:47.508Z,1000.97
2019-03-29T00:35:47.498Z,1000.97
2019-03-29T00:36:47.487Z,1000.89
2019-03-29T00:37:53.844Z,1000.91
2019-03-29T00:38:48.984Z,1000.86
2019-03-29T00:39:47.456Z,1000.88
2019-03-29T00:40:47.448Z,1000.87
2019-03-29T00:41:47.430Z,1000.76
2019-03-29T00:42:47.469Z,1000.79
2019-03-29T00:43:47.409Z,1000.75
2019-03-29T00:44:47.401Z,1000.69
2019-03-29T00:45:57.179Z,1000.66
2019-03-29T00:46:47.384Z,1000.73
2019-03-29T00:47:47.366Z,1000.72
2019-03-29T00:48:47.431Z,1000.89
2019-03-29T00:49:47.349Z,1000.72
2019-03-29T00:50:47.336Z,1000.69
2019-03-29T00:51:47.332Z,1000.64
2019-03-29T00:52:47.317Z,1000.64
2019-03-29T00:53:47.339Z,1000.54
2019-03-29T00:54:47.296Z,1000.50
2019-03-29T00:55:47.283Z,1000.51
2019-03-29T00:56:47.279Z,1000.54
2019-03-29T00:57:47.259Z,1000.52
2019-03-29T00:58:47.258Z,1000.42
2019-03-29T00:59:47.278Z,1000.44
2019-03-29T01:00:47.229Z,1000.37
2019-03-29T01:01:47.218Z,1000.39
2019-03-29T01:02:47.215Z,1000.39
2019-03-29T01:03:47.205Z,1000.27
2019-03-29T01:04:47.189Z,1000.32
2019-03-29T01:05:47.248Z,1000.21
2019-03-29T01:06:47.164Z,1000.25
2019-03-29T01:07:47.167Z,1000.27
2019-03-29T01:08:47.165Z,1000.28
2019-03-29T01:09:47.141Z,1000.22
2019-03-29T01:10:47.154Z,1000.21
2019-03-29T01:11:47.115Z,1000.18
2019-03-29T01:12:47.107Z,1000.14
2019-03-29T01:13:47.094Z,1000.15
2019-03-29T01:14:47.083Z,1000.09
2019-03-29T01:15:47.091Z,1000.10
2019-03-29T01:16:57.983Z,1000.05
2019-03-29T01:17:47.052Z,1000.00
2019-03-29T01:18:47.037Z,1000.01
2019-03-29T01:19:47.031Z,1000.13
2019-03-29T01:20:47.405Z,1000.13
2019-03-29T01:21:47.043Z,1000.14
2019-03-29T01:22:46.994Z,1000.07
2019-03-29T01:23:47.021Z,999.99
2019-03-29T01:24:46.977Z,1000.02
2019-03-29T01:25:46.966Z,1000.00
2019-03-29T01:26:46.959Z,999.97
2019-03-29T01:27:46.984Z,999.98
2019-03-29T01:28:46.939Z,1000.01
2019-03-29T01:29:46.925Z,999.99
2019-03-29T01:30:46.923Z,999.92
2019-03-29T01:31:46.903Z,999.86
2019-03-29T01:32:46.891Z,999.88
2019-03-29T01:33:46.922Z,999.84
2019-03-29T01:34:46.873Z,999.82
2019-03-29T01:35:46.858Z,999.80
2019-03-29T01:36:46.926Z,999.83
2019-03-29T01:37:46.842Z,999.81
2019-03-29T01:38:46.830Z,999.76
2019-03-29T01:39:46.828Z,999.69
2019-03-29T01:40:46.810Z,999.71
2019-03-29T01:41:46.796Z,999.69
2019-03-29T01:42:46.790Z,999.69
2019-03-29T01:43:46.813Z,999.57
2019-03-29T01:44:46.767Z,999.57
2019-03-29T01:45:46.758Z,999.61
2019-03-29T01:46:46.751Z,999.58
2019-03-29T01:47:56.704Z,999.51
2019-03-29T01:48:46.721Z,999.50
2019-03-29T01:49:46.719Z,999.52
2019-03-29T01:50:46.698Z,999.58
2019-03-29T01:51:46.686Z,999.53
2019-03-29T01:52:46.681Z,999.54
2019-03-29T01:53:46.673Z,999.46
2019-03-29T01:54:46.839Z,999.48
2019-03-29T01:55:46.687Z,999.46
2019-03-29T01:56:46.639Z,999.36
2019-03-29T01:57:46.621Z,999.31
2019-03-29T01:58:46.614Z,999.41
2019-03-29T01:59:46.614Z,999.43
2019-03-29T02:00:46.633Z,999.42
2019-03-29T02:01:46.591Z,999.43
2019-03-29T02:02:46.883Z,999.34
2019-03-29T02:03:46.565Z,999.32
2019-03-29T02:04:46.549Z,999.29
2019-03-29T02:05:46.543Z,999.25
2019-03-29T02:06:46.567Z,999.26
2019-03-29T02:07:46.519Z,999.27
2019-03-29T02:08:46.511Z,999.31
2019-03-29T02:09:46.496Z,999.31
2019-03-29T02:10:46.491Z,999.25
2019-03-29T02:11:46.481Z,999.22
2019-03-29T02:12:46.480Z,999.14
2019-03-29T02:13:46.457Z,999.15
2019-03-29T02:14:46.449Z,999.11
2019-03-29T02:15:46.433Z,999.08
2019-03-29T02:16:46.462Z,999.15
2019-03-29T02:17:47.230Z,999.17
2019-03-29T02:18:58.099Z,999.15
2019-03-29T02:19:46.395Z,999.16
2019-03-29T02:20:46.379Z,999.18
2019-03-29T02:21:46.369Z,999.18
2019-03-29T02:22:46.367Z,999.15
2019-03-29T02:23:46.355Z,999.13
2019-03-29T02:24:46.335Z,999.17
2019-03-29T02:25:46.327Z,999.25
2019-03-29T02:26:46.320Z,999.30
2019-03-29T02:27:46.319Z,999.30
2019-03-29T02:28:46.331Z,999.28
2019-03-29T02:29:46.284Z,999.27
2019-03-29T02:30:46.276Z,999.28
2019-03-29T02:31:46.266Z,999.30
2019-03-29T02:32:46.319Z,999.24
2019-03-29T02:33:46.243Z,999.25
2019-03-29T02:34:46.412Z,999.20
2019-03-29T02:35:46.226Z,999.23
2019-03-29T02:36:46.210Z,999.15
2019-03-29T02:37:46.222Z,999.18
2019-03-29T02:38:55.343Z,999.25
2019-03-29T02:39:47.190Z,999.25
2019-03-29T02:40:46.166Z,999.28
2019-03-29T02:41:46.857Z,999.28
2019-03-29T02:42:46.209Z,999.34
2019-03-29T02:43:46.135Z,999.31
2019-03-29T02:44:46.161Z,999.36
2019-03-29T02:45:46.120Z,999.31
2019-03-29T02:46:46.112Z,999.28
2019-03-29T02:47:46.101Z,999.29
2019-03-29T02:48:46.083Z,999.34
2019-03-29T02:49:57.136Z,999.28
2019-03-29T02:50:46.067Z,999.27
2019-03-29T02:51:46.054Z,999.27
2019-03-29T02:52:46.044Z,999.26
2019-03-29T02:53:46.035Z,999.27
2019-03-29T02:54:46.016Z,999.26
2019-03-29T02:55:46.046Z,999.24
2019-03-29T02:56:46.006Z,999.23
2019-03-29T02:57:45.989Z,999.25
2019-03-29T02:58:45.996Z,999.27
2019-03-29T02:59:45.965Z,999.24
2019-03-29T03:00:45.955Z,999.25
2019-03-29T03:01:45.994Z,999.23
2019-03-29T03:02:45.937Z,999.23
2019-03-29T03:03:45.933Z,999.21
2019-03-29T03:04:45.911Z,999.25
2019-03-29T03:05:45.905Z,999.19
2019-03-29T03:06:45.893Z,999.20
2019-03-29T03:07:45.888Z,999.21
2019-03-29T03:08:45.876Z,999.23
2019-03-29T03:09:45.865Z,999.18
2019-03-29T03:10:45.862Z,999.15
2019-03-29T03:11:45.839Z,999.12
2019-03-29T03:12:46.152Z,999.04
2019-03-29T03:13:45.825Z,998.98
2019-03-29T03:14:45.809Z,999.00
2019-03-29T03:15:45.794Z,998.89
2019-03-29T03:16:45.786Z,998.86
2019-03-29T03:17:45.778Z,998.82
2019-03-29T03:18:45.783Z,998.77
2019-03-29T03:19:45.758Z,998.77
2019-03-29T03:20:55.966Z,998.73
2019-03-29T03:21:45.734Z,998.72
2019-03-29T03:22:45.726Z,998.68
2019-03-29T03:23:45.762Z,998.65
2019-03-29T03:24:45.701Z,998.57
2019-03-29T03:25:45.686Z,998.57
2019-03-29T03:26:45.682Z,998.55
2019-03-29T03:27:45.667Z,998.58
2019-03-29T03:28:45.659Z,998.58
2019-03-29T03:29:48.030Z,998.60
2019-03-29T03:30:45.646Z,998.58
2019-03-29T03:31:45.627Z,998.59
2019-03-29T03:32:45.620Z,998.62
2019-03-29T03:33:45.610Z,998.58
2019-03-29T03:34:45.595Z,998.54
2019-03-29T03:35:45.760Z,998.51
2019-03-29T03:36:45.575Z,998.47
2019-03-29T03:37:45.563Z,998.48
2019-03-29T03:38:45.550Z,998.44
2019-03-29T03:39:45.546Z,998.42
2019-03-29T03:40:45.539Z,998.49
2019-03-29T03:41:45.531Z,998.50
2019-03-29T03:42:45.511Z,998.48
2019-03-29T03:43:45.503Z,998.44
2019-03-29T03:44:45.490Z,998.39
2019-03-29T03:45:45.477Z,998.36
2019-03-29T03:46:45.484Z,998.38
2019-03-29T03:47:45.454Z,998.31
2019-03-29T03:48:45.449Z,998.27
2019-03-29T03:49:45.443Z,998.25
2019-03-29T03:50:45.422Z,998.18
2019-03-29T03:51:56.671Z,998.14
2019-03-29T03:52:45.407Z,998.14
2019-03-29T03:53:45.391Z,998.13
2019-03-29T03:54:45.380Z,998.10
2019-03-29T03:55:45.366Z,998.07
2019-03-29T03:56:45.365Z,998.09
2019-03-29T03:57:45.529Z,997.99
2019-03-29T03:58:45.347Z,998.04
2019-03-29T03:59:45.330Z,997.99
2019-03-29T04:00:45.329Z,997.93
2019-03-29T04:01:45.311Z,998.02
2019-03-29T04:02:45.292Z,997.95
2019-03-29T04:03:45.301Z,998.00
2019-03-29T04:04:45.272Z,998.02
2019-03-29T04:05:45.268Z,998.07
2019-03-29T04:06:45.260Z,998.05
2019-03-29T04:07:45.248Z,998.02
2019-03-29T04:08:45.293Z,998.01
2019-03-29T04:09:49.929Z,997.97
2019-03-29T04:10:46.212Z,997.95
2019-03-29T04:11:45.222Z,997.90
2019-03-29T04:12:45.193Z,997.96
2019-03-29T04:13:45.181Z,997.93
2019-03-29T04:14:45.207Z,997.91
2019-03-29T04:15:45.178Z,997.96
2019-03-29T04:16:45.153Z,997.90
2019-03-29T04:17:45.141Z,997.94
2019-03-29T04:18:45.995Z,997.93
2019-03-29T04:19:45.120Z,997.94
2019-03-29T04:20:45.118Z,998.02
2019-03-29T04:21:45.095Z,998.05
2019-03-29T04:22:55.002Z,998.03
2019-03-29T04:23:45.073Z,998.12
2019-03-29T04:24:45.065Z,998.17
2019-03-29T04:25:45.232Z,998.23
2019-03-29T04:26:45.042Z,998.23
2019-03-29T04:27:45.030Z,998.28
2019-03-29T04:28:56.809Z,998.30
2019-03-29T04:29:46.008Z,998.28
2019-03-29T04:30:45.009Z,998.33
2019-03-29T04:31:45.025Z,998.29
2019-03-29T04:32:44.977Z,998.30
2019-03-29T04:33:44.971Z,998.29
2019-03-29T04:34:44.952Z,998.23
2019-03-29T04:35:44.950Z,998.29
2019-03-29T04:36:44.994Z,998.25
2019-03-29T04:37:44.937Z,998.31
2019-03-29T04:38:44.919Z,998.38
2019-03-29T04:39:44.904Z,998.42
2019-03-29T04:40:44.893Z,998.45
2019-03-29T04:41:44.880Z,998.50
2019-03-29T04:42:44.916Z,998.43
2019-03-29T04:43:44.861Z,998.44
2019-03-29T04:44:44.854Z,998.39
2019-03-29T04:45:44.838Z,998.36
2019-03-29T04:46:44.830Z,998.36
2019-03-29T04:47:44.818Z,998.26
2019-03-29T04:48:44.854Z,998.17
2019-03-29T04:49:44.792Z,998.12
2019-03-29T04:50:44.790Z,998.15
2019-03-29T04:51:44.774Z,998.14
2019-03-29T04:52:44.764Z,998.17
2019-03-29T04:53:55.575Z,998.26
2019-03-29T04:54:44.744Z,998.30
2019-03-29T04:55:44.730Z,998.35
2019-03-29T04:56:44.724Z,998.34
2019-03-29T04:57:44.711Z,998.39
2019-03-29T04:58:44.703Z,998.31
2019-03-29T04:59:44.730Z,998.31
2019-03-29T05:00:44.677Z,998.21
2019-03-29T05:01:44.665Z,998.10
2019-03-29T05:02:44.663Z,998.15
2019-03-29T05:03:44.649Z,998.12
2019-03-29T05:04:44.639Z,998.14
2019-03-29T05:05:44.795Z,998.19
2019-03-29T05:06:44.616Z,998.23
2019-03-29T05:07:44.605Z,998.22
2019-03-29T05:08:44.593Z,998.11
2019-03-29T05:09:44.589Z,998.10
2019-03-29T05:10:44.579Z,998.13
2019-03-29T05:11:44.577Z,998.15
2019-03-29T05:12:44.551Z,998.13
2019-03-29T05:13:44.549Z,998.10
2019-03-29T05:14:44.529Z,998.05
2019-03-29T05:15:44.541Z,998.00
2019-03-29T05:16:44.512Z,998.04
2019-03-29T05:17:44.498Z,998.06
2019-03-29T05:18:44.494Z,998.04
2019-03-29T05:19:44.755Z,997.97
2019-03-29T05:20:44.465Z,997.92
2019-03-29T05:21:44.496Z,997.88
2019-03-29T05:22:44.452Z,997.81
2019-03-29T05:23:44.440Z,997.82
2019-03-29T05:24:54.385Z,997.76
2019-03-29T05:25:44.423Z,997.71
2019-03-29T05:26:44.408Z,997.68
2019-03-29T05:27:44.430Z,997.59
2019-03-29T05:28:44.381Z,997.57
2019-03-29T05:29:44.377Z,997.56
2019-03-29T05:30:44.368Z,997.52
2019-03-29T05:31:44.354Z,997.58
2019-03-29T05:32:44.342Z,997.54
2019-03-29T05:33:44.345Z,997.57
2019-03-29T05:34:44.322Z,997.58
2019-03-29T05:35:44.308Z,997.60
2019-03-29T05:36:44.302Z,997.59
2019-03-29T05:37:44.333Z,997.54
2019-03-29T05:38:44.276Z,997.57
2019-03-29T05:39:44.279Z,997.54
2019-03-29T05:40:44.260Z,997.53
2019-03-29T05:41:44.245Z,997.57
2019-03-29T05:42:44.235Z,997.62
2019-03-29T05:43:44.233Z,997.58
2019-03-29T05:44:44.292Z,997.58
2019-03-29T05:45:44.221Z,997.59
2019-03-29T05:46:44.197Z,997.59
2019-03-29T05:47:44.187Z,997.58
2019-03-29T05:48:44.223Z,997.59
2019-03-29T05:49:44.171Z,997.62
2019-03-29T05:50:44.171Z,997.45
2019-03-29T05:51:44.151Z,997.49
2019-03-29T05:52:44.136Z,997.46
2019-03-29T05:53:44.125Z,997.45
2019-03-29T05:54:44.148Z,997.52
2019-03-29T05:55:54.484Z,997.51
2019-03-29T05:56:44.092Z,997.50
2019-03-29T05:57:44.078Z,997.51
2019-03-29T05:58:44.069Z,997.37
2019-03-29T05:59:44.069Z,997.41
2019-03-29T06:00:44.105Z,997.39
2019-03-29T06:01:44.035Z,997.40
2019-03-29T06:02:44.031Z,997.39
2019-03-29T06:03:44.020Z,997.33
2019-03-29T06:04:44.079Z,997.29
2019-03-29T06:05:44.014Z,997.23
2019-03-29T06:06:44.032Z,997.20
2019-03-29T06:07:43.973Z,997.21
2019-03-29T06:08:43.963Z,997.18
2019-03-29T06:09:43.966Z,997.18
2019-03-29T06:10:49.409Z,997.13
2019-03-29T06:11:44.967Z,997.13
2019-03-29T06:12:43.926Z,997.13
2019-03-29T06:13:43.914Z,997.14
2019-03-29T06:14:43.902Z,997.14
2019-03-29T06:15:43.892Z,997.07
2019-03-29T06:16:43.922Z,997.00
2019-03-29T06:17:48.900Z,997.04
2019-03-29T06:18:44.857Z,996.97
2019-03-29T06:19:43.842Z,997.05
2019-03-29T06:20:43.837Z,997.03
2019-03-29T06:21:43.830Z,997.05
2019-03-29T06:22:43.821Z,996.98
2019-03-29T06:23:43.840Z,997.01
2019-03-29T06:24:43.800Z,996.93
2019-03-29T06:25:43.784Z,996.91
2019-03-29T06:26:53.667Z,996.83
2019-03-29T06:27:43.761Z,996.88
2019-03-29T06:28:43.748Z,996.85
2019-03-29T06:29:43.746Z,996.89
2019-03-29T06:30:43.791Z,996.85
2019-03-29T06:31:43.718Z,996.79
2019-03-29T06:32:43.707Z,996.76
2019-03-29T06:33:44.688Z,996.71
2019-03-29T06:34:43.696Z,996.63
2019-03-29T06:35:43.713Z,996.64
2019-03-29T06:36:43.666Z,996.62
2019-03-29T06:37:43.658Z,996.69
2019-03-29T06:38:43.648Z,996.55
2019-03-29T06:39:43.635Z,996.58
2019-03-29T06:40:43.623Z,996.52
2019-03-29T06:41:43.790Z,996.50
2019-03-29T06:42:43.596Z,996.44
2019-03-29T06:43:43.590Z,996.46
2019-03-29T06:44:44.490Z,996.44
2019-03-29T06:45:48.052Z,996.45
2019-03-29T06:46:43.561Z,996.39
2019-03-29T06:47:43.605Z,996.39
2019-03-29T06:48:43.595Z,996.29
2019-03-29T06:49:43.737Z,996.30
2019-03-29T06:50:43.584Z,996.35
2019-03-29T06:51:44.078Z,996.34
2019-03-29T06:52:43.624Z,996.31
2019-03-29T06:53:43.498Z,996.23
2019-03-29T06:54:43.768Z,996.23
2019-03-29T06:55:43.640Z,996.20
2019-03-29T06:56:43.520Z,996.15
2019-03-29T06:57:54.265Z,996.06
2019-03-29T06:58:43.439Z,996.19
2019-03-29T06:59:43.417Z,996.16
2019-03-29T07:00:46.635Z,996.20
2019-03-29T07:01:46.315Z,996.17
2019-03-29T07:02:43.391Z,996.15
2019-03-29T07:03:43.394Z,996.06
2019-03-29T07:04:43.368Z,996.17
2019-03-29T07:05:43.348Z,996.14
2019-03-29T07:06:43.350Z,996.05
2019-03-29T07:07:44.676Z,996.04
2019-03-29T07:08:43.362Z,996.02
2019-03-29T07:09:43.312Z,995.94
2019-03-29T07:10:43.296Z,995.86
2019-03-29T07:11:43.287Z,995.82
2019-03-29T07:12:43.280Z,995.88
2019-03-29T07:13:56.219Z,995.94
2019-03-29T07:14:44.284Z,995.85
2019-03-29T07:15:43.239Z,995.86
2019-03-29T07:16:43.235Z,995.84
2019-03-29T07:17:43.242Z,995.89
2019-03-29T07:18:43.208Z,995.78
2019-03-29T07:19:43.197Z,995.88
2019-03-29T07:20:43.213Z,995.78
2019-03-29T07:21:43.177Z,995.81
2019-03-29T07:22:43.173Z,995.80
2019-03-29T07:23:43.173Z,995.75
2019-03-29T07:24:43.143Z,995.71
2019-03-29T07:25:43.168Z,995.71
2019-03-29T07:26:43.143Z,995.72
2019-03-29T07:27:45.857Z,995.80
2019-03-29T07:29:57.854Z,995.76
2019-03-29T07:30:57.867Z,995.79
2019-03-29T07:31:57.824Z,995.77
2019-03-29T07:32:57.812Z,995.72
2019-03-29T07:33:57.798Z,995.80
2019-03-29T07:34:57.809Z,995.70
2019-03-29T07:35:57.779Z,995.79
2019-03-29T07:36:57.774Z,995.69
2019-03-29T07:37:57.755Z,995.69
2019-03-29T07:38:57.796Z,995.69
2019-03-29T07:39:57.741Z,995.70
2019-03-29T07:40:57.719Z,995.70
2019-03-29T07:41:57.736Z,995.72
2019-03-29T07:42:57.703Z,995.66
2019-03-29T07:43:57.689Z,995.64
2019-03-29T07:44:57.675Z,995.56
2019-03-29T07:45:57.672Z,995.56
2019-03-29T07:46:57.699Z,995.61
2019-03-29T07:47:57.655Z,995.56
2019-03-29T07:48:57.637Z,995.46
2019-03-29T07:49:57.628Z,995.53
2019-03-29T07:50:57.619Z,995.48
2019-03-29T07:51:57.608Z,995.53
2019-03-29T07:52:57.610Z,995.46
2019-03-29T07:53:57.752Z,995.47
2019-03-29T07:54:57.589Z,995.47
2019-03-29T07:55:57.577Z,995.53
2019-03-29T07:56:57.549Z,995.50
2019-03-29T07:57:57.549Z,995.47
2019-03-29T07:58:57.813Z,995.47
2019-03-29T08:00:07.590Z,995.49
2019-03-29T08:00:57.502Z,995.40
2019-03-29T08:01:57.507Z,995.47
2019-03-29T08:02:57.482Z,995.58
2019-03-29T08:03:57.479Z,995.49
2019-03-29T08:04:57.619Z,995.48
2019-03-29T08:05:57.446Z,995.53
2019-03-29T08:06:57.457Z,995.57
2019-03-29T08:07:57.435Z,995.56
2019-03-29T08:08:57.421Z,995.66
2019-03-29T08:09:57.409Z,995.60
2019-03-29T08:10:58.323Z,995.58
2019-03-29T08:11:57.382Z,995.67
2019-03-29T08:12:57.423Z,995.65
2019-03-29T08:13:57.372Z,995.68
2019-03-29T08:14:57.390Z,995.66
2019-03-29T08:15:57.344Z,995.61
2019-03-29T08:16:58.086Z,995.70
2019-03-29T08:17:57.331Z,995.59
2019-03-29T08:18:57.311Z,995.62
2019-03-29T08:20:13.357Z,995.64
2019-03-29T08:20:58.298Z,995.64
2019-03-29T08:21:57.933Z,995.57
2019-03-29T08:22:57.262Z,995.62
2019-03-29T08:23:57.256Z,995.61
2019-03-29T08:24:59.243Z,995.64
2019-03-29T08:25:57.237Z,995.62
2019-03-29T08:26:57.387Z,995.60
2019-03-29T08:27:57.219Z,995.60
2019-03-29T08:28:57.202Z,995.52
2019-03-29T08:29:57.192Z,995.56
2019-03-29T08:31:07.564Z,995.52
2019-03-29T08:31:57.164Z,995.48
2019-03-29T08:32:57.185Z,995.53
2019-03-29T08:33:57.145Z,995.62
2019-03-29T08:34:57.168Z,995.56
2019-03-29T08:35:57.121Z,995.57
2019-03-29T08:36:57.118Z,995.49
2019-03-29T08:37:57.098Z,995.50
2019-03-29T08:38:57.102Z,995.46
2019-03-29T08:39:57.079Z,995.36
2019-03-29T08:41:04.053Z,995.31
2019-03-29T08:42:00.303Z,995.32
2019-03-29T08:42:57.054Z,995.31
2019-03-29T08:43:57.034Z,995.29
2019-03-29T08:44:57.017Z,995.26
2019-03-29T08:45:57.808Z,995.37
2019-03-29T08:46:56.995Z,995.41
2019-03-29T08:47:57.031Z,995.46
2019-03-29T08:48:56.979Z,995.55
2019-03-29T08:49:56.971Z,995.58
2019-03-29T08:50:57.020Z,995.64
2019-03-29T08:51:56.950Z,995.60
2019-03-29T08:52:56.935Z,995.62
2019-03-29T08:53:56.957Z,995.57
2019-03-29T08:54:56.980Z,995.60
2019-03-29T08:55:56.904Z,995.48
2019-03-29T08:56:56.897Z,995.55
2019-03-29T08:57:56.875Z,995.49
2019-03-29T08:58:56.871Z,995.42
2019-03-29T08:59:57.037Z,995.56
2019-03-29T09:00:56.843Z,995.55
2019-03-29T09:01:56.866Z,995.52
2019-03-29T09:02:56.832Z,995.57
2019-03-29T09:04:04.994Z,995.58
2019-03-29T09:04:57.895Z,995.45
2019-03-29T09:05:57.001Z,995.53
2019-03-29T09:06:56.780Z,995.55
2019-03-29T09:07:56.771Z,995.52
2019-03-29T09:08:56.763Z,995.45
2019-03-29T09:09:56.751Z,995.48
2019-03-29T09:10:56.732Z,995.53
2019-03-29T09:12:14.246Z,995.52
2019-03-29T09:12:57.712Z,995.51
2019-03-29T09:13:56.701Z,995.48
2019-03-29T09:14:56.697Z,995.37
2019-03-29T09:15:56.697Z,995.34
2019-03-29T09:16:56.689Z,995.40
2019-03-29T09:17:59.643Z,995.37
2019-03-29T09:18:56.646Z,995.34
2019-03-29T09:19:56.635Z,995.50
2019-03-29T09:20:56.627Z,995.28
2019-03-29T09:21:56.642Z,995.28
2019-03-29T09:22:56.626Z,995.25
2019-03-29T09:23:56.597Z,995.20
2019-03-29T09:24:56.580Z,995.27
2019-03-29T09:25:56.605Z,995.16
2019-03-29T09:26:56.561Z,995.18
2019-03-29T09:27:56.563Z,995.18
2019-03-29T09:28:56.539Z,995.20
2019-03-29T09:29:56.524Z,995.18
2019-03-29T09:30:57.008Z,995.17
2019-03-29T09:31:56.606Z,995.21
2019-03-29T09:32:56.506Z,995.09
2019-03-29T09:33:58.563Z,995.17
2019-03-29T09:34:56.480Z,995.10
2019-03-29T09:35:56.461Z,995.01
2019-03-29T09:36:59.782Z,994.97
2019-03-29T09:37:56.775Z,995.09
2019-03-29T09:38:56.475Z,995.05
2019-03-29T09:39:56.424Z,995.12
2019-03-29T09:40:59.123Z,995.04
2019-03-29T09:41:56.436Z,995.01
2019-03-29T09:43:07.819Z,994.96
2019-03-29T09:43:56.378Z,995.01
2019-03-29T09:44:56.545Z,994.90
2019-03-29T09:45:56.362Z,994.87
2019-03-29T09:46:56.341Z,994.91
2019-03-29T09:47:56.338Z,994.91
2019-03-29T09:48:56.330Z,994.96
2019-03-29T09:49:56.311Z,994.93
2019-03-29T09:50:56.475Z,994.99
2019-03-29T09:51:56.299Z,995.01
2019-03-29T09:52:56.288Z,995.03
2019-03-29T09:53:57.908Z,995.05
2019-03-29T09:54:56.262Z,995.01
2019-03-29T09:55:56.254Z,995.12
2019-03-29T09:56:56.250Z,995.09
2019-03-29T09:57:56.235Z,995.05
2019-03-29T09:58:56.221Z,995.11
2019-03-29T09:59:56.210Z,995.13
2019-03-29T10:00:56.196Z,995.15
2019-03-29T10:01:56.229Z,995.19
2019-03-29T10:02:56.181Z,995.12
2019-03-29T10:03:56.179Z,995.19
2019-03-29T10:04:56.159Z,995.05
2019-03-29T10:05:56.141Z,995.04
2019-03-29T10:06:56.138Z,994.97
2019-03-29T10:07:56.135Z,994.99
2019-03-29T10:08:58.681Z,995.10
2019-03-29T10:09:56.107Z,995.03
2019-03-29T10:10:56.091Z,995.03
2019-03-29T10:11:56.083Z,994.85
2019-03-29T10:12:56.240Z,994.87
2019-03-29T10:14:07.013Z,994.87
2019-03-29T10:14:56.083Z,994.85
2019-03-29T10:15:56.046Z,994.88
2019-03-29T10:16:56.029Z,994.85
2019-03-29T10:17:56.023Z,994.84
2019-03-29T10:18:56.184Z,994.77
2019-03-29T10:19:55.998Z,994.79
2019-03-29T10:20:55.986Z,994.73
2019-03-29T10:21:55.977Z,994.75
2019-03-29T10:22:55.967Z,994.81
2019-03-29T10:23:55.976Z,994.75
2019-03-29T10:24:55.980Z,994.77
2019-03-29T10:25:58.605Z,994.72
2019-03-29T10:26:55.925Z,994.75
2019-03-29T10:27:55.917Z,994.83
2019-03-29T10:28:55.912Z,994.91
2019-03-29T10:29:55.907Z,994.83
2019-03-29T10:30:56.058Z,994.87
2019-03-29T10:31:55.871Z,994.82
2019-03-29T10:32:55.867Z,994.81
2019-03-29T10:33:55.853Z,994.88
2019-03-29T10:34:55.852Z,994.90
2019-03-29T10:36:03.240Z,994.91
2019-03-29T10:36:55.822Z,994.89
2019-03-29T10:37:55.813Z,994.89
2019-03-29T10:39:02.909Z,994.82
2019-03-29T10:39:55.790Z,994.76
2019-03-29T10:40:55.821Z,994.83
2019-03-29T10:41:55.775Z,994.83
2019-03-29T10:42:58.033Z,994.88
2019-03-29T10:44:02.742Z,994.90
2019-03-29T10:44:55.740Z,994.89
2019-03-29T10:45:55.732Z,994.90
2019-03-29T10:46:55.733Z,994.96
2019-03-29T10:47:55.717Z,994.92
2019-03-29T10:48:55.726Z,994.91
2019-03-29T10:49:55.691Z,994.92
2019-03-29T10:50:55.687Z,994.91
2019-03-29T10:51:55.686Z,994.87
2019-03-29T10:52:55.661Z,994.83
2019-03-29T10:53:55.676Z,994.89
2019-03-29T10:54:55.641Z,994.83
2019-03-29T10:55:55.634Z,994.79
2019-03-29T10:56:55.811Z,994.77
2019-03-29T10:57:55.619Z,994.78
2019-03-29T10:58:55.603Z,994.78
2019-03-29T10:59:55.598Z,994.73
2019-03-29T11:00:55.590Z,994.77
2019-03-29T11:01:55.575Z,994.83
2019-03-29T11:02:55.738Z,994.80
2019-03-29T11:03:55.554Z,994.75
2019-03-29T11:04:55.551Z,994.70
2019-03-29T11:05:55.537Z,994.62
2019-03-29T11:06:55.532Z,994.65
2019-03-29T11:07:55.531Z,994.67
2019-03-29T11:08:55.678Z,994.76
2019-03-29T11:09:55.496Z,994.72
2019-03-29T11:10:55.511Z,994.57
2019-03-29T11:11:55.485Z,994.66
2019-03-29T11:12:55.467Z,994.60
2019-03-29T11:13:56.832Z,994.66
2019-03-29T11:15:06.855Z,994.58
2019-03-29T11:15:55.445Z,994.64
2019-03-29T11:16:55.427Z,994.53
2019-03-29T11:17:55.426Z,994.64
2019-03-29T11:18:55.449Z,994.58
2019-03-29T11:19:55.397Z,994.73
2019-03-29T11:20:55.392Z,994.58
2019-03-29T11:21:55.385Z,994.52
2019-03-29T11:22:55.375Z,994.58
2019-03-29T11:23:55.366Z,994.61
2019-03-29T11:24:55.356Z,994.55
2019-03-29T11:25:55.339Z,994.46
2019-03-29T11:26:55.327Z,994.36
2019-03-29T11:27:55.317Z,994.36
2019-03-29T11:28:55.312Z,994.25
2019-03-29T11:29:55.340Z,994.34
2019-03-29T11:30:55.302Z,994.50
2019-03-29T11:31:55.282Z,994.53
2019-03-29T11:32:55.274Z,994.44
2019-03-29T11:33:55.259Z,994.49
2019-03-29T11:34:55.261Z,994.50
2019-03-29T11:35:55.279Z,994.52
2019-03-29T11:36:55.235Z,994.56
2019-03-29T11:37:55.220Z,994.53
2019-03-29T11:38:55.206Z,994.56
2019-03-29T11:39:55.206Z,994.51
2019-03-29T11:40:55.196Z,994.54
2019-03-29T11:41:55.183Z,994.52
2019-03-29T11:42:55.168Z,994.58
2019-03-29T11:43:55.164Z,994.59
2019-03-29T11:44:55.156Z,994.63
2019-03-29T11:46:05.634Z,994.61
2019-03-29T11:46:55.303Z,994.71
2019-03-29T11:48:07.413Z,994.69
2019-03-29T11:48:56.110Z,994.74
2019-03-29T11:49:55.098Z,994.76
2019-03-29T11:50:55.099Z,994.77
2019-03-29T11:51:55.082Z,994.80
2019-03-29T11:52:55.099Z,994.81
2019-03-29T11:53:55.063Z,994.78
2019-03-29T11:54:55.056Z,994.80
2019-03-29T11:55:55.044Z,994.73
2019-03-29T11:56:55.033Z,994.88
2019-03-29T11:57:55.999Z,994.87
2019-03-29T11:58:55.054Z,994.77
2019-03-29T11:59:55.007Z,994.78
2019-03-29T12:00:55.002Z,994.87
2019-03-29T12:01:54.985Z,994.78
2019-03-29T12:02:54.977Z,994.80
2019-03-29T12:03:54.964Z,994.81
2019-03-29T12:04:54.971Z,994.74
2019-03-29T12:05:54.949Z,994.83
2019-03-29T12:06:54.940Z,994.70
2019-03-29T12:07:54.933Z,994.58
2019-03-29T12:08:57.082Z,994.68
2019-03-29T12:09:54.966Z,994.70
2019-03-29T12:10:54.896Z,994.51
2019-03-29T12:11:54.892Z,994.42
2019-03-29T12:12:54.878Z,994.47
2019-03-29T12:13:54.874Z,994.44
2019-03-29T12:14:54.862Z,994.49
2019-03-29T12:15:54.855Z,994.45
2019-03-29T12:17:05.147Z,994.63
2019-03-29T12:17:54.826Z,994.61
2019-03-29T12:18:54.818Z,994.60
2019-03-29T12:19:54.809Z,994.58
2019-03-29T12:20:54.811Z,994.53
2019-03-29T12:21:54.796Z,994.53
2019-03-29T12:22:54.780Z,994.52
2019-03-29T12:23:54.772Z,994.54
2019-03-29T12:24:54.761Z,994.43
2019-03-29T12:25:54.761Z,994.50
2019-03-29T12:26:55.111Z,994.43